Time;durP1;ratioP1;P1;durP2;ratioP2;P2;SDS_P1;SDS_P2;PMS_P1;PMS_P2;Temp;Humidity;BMP_temperature;BMP_pressure;BME280_temperature;BME280_humidity;BME280_pressure;Samples;Min_cycle;Max_cycle;Signal;HPM_P1;HPM_P2
2023/06/01 00:00:44;;;;;;;2.60;1.75;;;;;;;;;;5039502;28;20035;-84
2023/06/01 00:03:09;;;;;;;4.00;2.08;;;;;;;;;;5055963;28;20021;-83
2023/06/01 00:05:34;;;;;;;2.78;1.95;;;;;;;;;;5056013;28;20033;-83
2023/06/01 00:08:00;;;;;;;3.00;1.95;;;;;;;;;;5055765;28;20530;-83
2023/06/01 00:10:25;;;;;;;2.15;1.58;;;;;;;;;;5038352;28;20109;-84
2023/06/01 00:12:50;;;;;;;2.65;1.88;;;;;;;;;;5038170;28;20087;-84
2023/06/01 00:15:16;;;;;;;2.45;1.75;;;;;;;;;;5037820;28;20108;-83
2023/06/01 00:17:41;;;;;;;3.38;1.80;;;;;;;;;;5037581;28;20155;-82
2023/06/01 00:20:08;;;;;;;3.17;1.80;;;;;;;;;;5055189;28;20087;-82
2023/06/01 00:22:38;;;;;;;2.85;1.70;;;;;;;;;;5037580;28;20025;-83
2023/06/01 00:25:07;;;;;;;2.75;1.65;;;;;;;;;;5039459;28;20036;-82
2023/06/01 00:27:32;;;;;;;2.72;1.85;;;;;;;;;;5021396;28;20033;-82
2023/06/01 00:29:57;;;;;;;1.88;1.70;;;;;;;;;;5020581;28;20143;-83
2023/06/01 00:32:23;;;;;;;2.72;1.88;;;;;;;;;;5037101;28;20025;-83
2023/06/01 00:34:48;;;;;;;2.15;1.70;;;;;;;;;;5037370;28;20045;-83
2023/06/01 00:37:14;;;;;;;2.75;2.10;;;;;;;;;;5037434;28;20041;-83
2023/06/01 00:39:39;;;;;;;2.33;1.70;;;;;;;;;;5021945;28;20035;-83
2023/06/01 00:42:05;;;;;;;4.55;1.90;;;;;;;;;;5039488;28;20025;-83
2023/06/01 00:44:31;;;;;;;2.22;1.83;;;;;;;;;;5021047;28;20053;-83
2023/06/01 00:46:59;;;;;;;2.00;1.65;;;;;;;;;;5038876;28;20033;-83
2023/06/01 00:49:24;;;;;;;3.33;1.88;;;;;;;;;;5020761;28;20032;-83
2023/06/01 00:51:50;;;;;;;2.67;1.60;;;;;;;;;;5037039;28;20082;-84
2023/06/01 00:54:15;;;;;;;2.38;1.80;;;;;;;;;;5003984;28;20100;-83
2023/06/01 00:56:41;;;;;;;3.10;2.25;;;;;;;;;;5037232;28;20029;-83
2023/06/01 00:59:06;;;;;;;2.70;1.95;;;;;;;;;;5037326;28;20029;-83
2023/06/01 01:01:33;;;;;;;2.78;2.08;;;;;;;;;;5036416;28;20037;-83
2023/06/01 01:04:00;;;;;;;3.67;2.13;;;;;;;;;;5056899;28;20363;-84
2023/06/01 01:07:06;;;;;;;3.40;1.95;;;;;;;;;;5037565;28;20048;-83
2023/06/01 01:10:06;;;;;;;2.03;1.50;;;;;;;;;;5036668;28;20025;-83
2023/06/01 01:12:47;;;;;;;2.55;1.80;;;;;;;;;;5005936;28;20068;-83
2023/06/01 01:15:13;;;;;;;2.60;1.50;;;;;;;;;;5019854;28;20032;-84
2023/06/01 01:17:42;;;;;;;2.10;1.73;;;;;;;;;;5036409;28;20061;-83
2023/06/01 01:20:22;;;;;;;4.68;1.80;;;;;;;;;;5020026;28;20040;-83
2023/06/01 01:23:17;;;;;;;2.42;1.73;;;;;;;;;;5036198;28;20013;-84
2023/06/01 01:26:10;;;;;;;3.45;1.80;;;;;;;;;;5036450;28;20494;-84
2023/06/01 01:28:42;;;;;;;1.88;1.50;;;;;;;;;;5053953;28;20025;-84
2023/06/01 01:31:09;;;;;;;1.60;1.50;;;;;;;;;;5036249;28;20096;-83
2023/06/01 01:33:35;;;;;;;1.77;1.55;;;;;;;;;;5036309;28;20388;-84
2023/06/01 01:36:01;;;;;;;3.15;1.70;;;;;;;;;;5019772;28;20033;-84
2023/06/01 01:38:26;;;;;;;2.10;1.70;;;;;;;;;;5036313;28;20117;-84
2023/06/01 01:40:52;;;;;;;3.33;1.92;;;;;;;;;;5019648;28;20040;-83
2023/06/01 01:43:19;;;;;;;2.58;1.95;;;;;;;;;;5053820;28;20111;-83
2023/06/01 01:45:51;;;;;;;3.03;1.90;;;;;;;;;;5054527;28;20031;-82
2023/06/01 01:48:33;;;;;;;2.13;1.42;;;;;;;;;;5035791;28;20476;-83
2023/06/01 01:51:03;;;;;;;2.80;1.75;;;;;;;;;;5019398;28;20029;-84
2023/06/01 01:53:29;;;;;;;3.35;1.90;;;;;;;;;;5019379;28;20052;-83
2023/06/01 01:55:56;;;;;;;2.30;1.65;;;;;;;;;;5035845;28;20024;-83
2023/06/01 01:58:23;;;;;;;2.65;1.65;;;;;;;;;;5035814;28;20079;-83
2023/06/01 02:00:49;;;;;;;3.00;1.83;;;;;;;;;;5035970;28;20040;-84
2023/06/01 02:03:15;;;;;;;2.83;1.92;;;;;;;;;;5035332;28;20548;-84
2023/06/01 02:05:41;;;;;;;3.78;1.90;;;;;;;;;;5036155;28;20091;-83
2023/06/01 02:08:06;;;;;;;3.63;1.77;;;;;;;;;;5002658;28;20476;-84
2023/06/01 02:10:31;;;;;;;4.32;1.77;;;;;;;;;;5053330;28;20028;-83
2023/06/01 02:12:57;;;;;;;2.58;1.70;;;;;;;;;;5034906;28;20025;-84
2023/06/01 02:15:22;;;;;;;2.22;1.73;;;;;;;;;;5053235;28;20077;-83
2023/06/01 02:17:47;;;;;;;3.22;1.92;;;;;;;;;;5035670;28;20116;-83
2023/06/01 02:20:14;;;;;;;3.42;1.83;;;;;;;;;;5053449;28;20496;-83
2023/06/01 02:22:39;;;;;;;3.90;1.88;;;;;;;;;;5021040;28;20480;-83
2023/06/01 02:25:05;;;;;;;3.03;1.90;;;;;;;;;;5002442;28;20036;-83
2023/06/01 02:27:30;;;;;;;2.22;1.85;;;;;;;;;;5053048;28;20108;-83
2023/06/01 02:29:56;;;;;;;2.70;1.85;;;;;;;;;;5035246;28;20104;-83
2023/06/01 02:32:21;;;;;;;3.00;1.80;;;;;;;;;;5019451;28;20037;-83
2023/06/01 02:34:47;;;;;;;3.72;2.13;;;;;;;;;;5018493;28;20398;-84
2023/06/01 02:37:12;;;;;;;3.05;1.60;;;;;;;;;;5053286;28;20037;-83
2023/06/01 02:39:38;;;;;;;2.35;1.90;;;;;;;;;;5035441;28;20032;-84
2023/06/01 02:42:03;;;;;;;3.17;1.90;;;;;;;;;;5053240;28;20025;-83
2023/06/01 02:44:29;;;;;;;4.00;1.83;;;;;;;;;;5053138;28;20060;-82
2023/06/01 02:46:54;;;;;;;3.92;2.20;;;;;;;;;;5053434;28;20430;-84
2023/06/01 02:49:20;;;;;;;3.85;1.95;;;;;;;;;;5035077;28;20029;-83
2023/06/01 02:51:45;;;;;;;3.40;2.15;;;;;;;;;;5052829;28;20040;-83
2023/06/01 02:54:10;;;;;;;3.95;1.95;;;;;;;;;;5052967;28;20076;-81
2023/06/01 02:56:36;;;;;;;2.30;1.90;;;;;;;;;;5053432;28;20039;-83
2023/06/01 02:59:03;;;;;;;2.13;1.75;;;;;;;;;;5019445;28;20036;-84
2023/06/01 03:01:33;;;;;;;2.22;1.70;;;;;;;;;;5019287;28;20130;-84
2023/06/01 03:03:58;;;;;;;2.92;1.88;;;;;;;;;;5037110;28;20450;-84
2023/06/01 03:06:25;;;;;;;5.38;2.10;;;;;;;;;;5037435;28;20040;-83
2023/06/01 03:08:50;;;;;;;2.78;2.00;;;;;;;;;;5037631;28;20025;-84
2023/06/01 03:11:16;;;;;;;3.70;2.00;;;;;;;;;;5036371;28;20029;-84
2023/06/01 03:13:41;;;;;;;3.38;2.17;;;;;;;;;;5036480;28;20480;-83
2023/06/01 03:16:06;;;;;;;3.85;2.20;;;;;;;;;;5036775;28;20471;-84
2023/06/01 03:18:32;;;;;;;3.38;1.95;;;;;;;;;;5055130;28;20116;-84
2023/06/01 03:20:57;;;;;;;2.92;2.00;;;;;;;;;;5055117;28;20033;-85
2023/06/01 03:23:22;;;;;;;4.10;2.33;;;;;;;;;;5038859;28;20471;-84
2023/06/01 03:25:48;;;;;;;2.67;2.10;;;;;;;;;;5040409;28;20039;-84
2023/06/01 03:28:13;;;;;;;2.95;2.10;;;;;;;;;;5038393;28;20079;-83
2023/06/01 03:30:39;;;;;;;7.40;2.30;;;;;;;;;;5039049;28;20064;-82
2023/06/01 03:33:05;;;;;;;2.90;2.00;;;;;;;;;;5056512;28;20029;-83
2023/06/01 03:35:30;;;;;;;4.07;2.05;;;;;;;;;;5038042;28;20029;-84
2023/06/01 03:37:55;;;;;;;4.43;2.10;;;;;;;;;;5038459;28;20040;-84
2023/06/01 03:40:21;;;;;;;4.07;2.15;;;;;;;;;;5021767;28;20407;-84
2023/06/01 03:42:47;;;;;;;2.63;2.00;;;;;;;;;;5037980;28;20048;-84
2023/06/01 03:45:15;;;;;;;3.60;2.05;;;;;;;;;;5038376;28;20048;-84
2023/06/01 03:47:41;;;;;;;3.55;2.00;;;;;;;;;;5040015;28;20075;-84
2023/06/01 03:50:08;;;;;;;4.05;2.33;;;;;;;;;;5038029;28;20403;-84
2023/06/01 03:52:34;;;;;;;2.28;1.80;;;;;;;;;;5021446;28;20031;-84
2023/06/01 03:55:07;;;;;;;5.15;2.13;;;;;;;;;;5037778;28;20112;-84
2023/06/01 03:57:33;;;;;;;;;;;;;;;;;;5038209;28;20025;-84
2023/06/01 03:59:58;;;;;;;2.47;1.92;;;;;;;;;;5037668;28;19915;-84
2023/06/01 04:02:24;;;;;;;3.72;2.40;;;;;;;;;;5021443;28;20471;-83
2023/06/01 04:04:50;;;;;;;3.25;2.00;;;;;;;;;;5038473;28;20040;-83
2023/06/01 04:07:18;;;;;;;3.25;2.25;;;;;;;;;;5055634;28;20028;-83
2023/06/01 04:09:44;;;;;;;3.35;2.10;;;;;;;;;;5055586;28;20025;-83
2023/06/01 04:12:13;;;;;;;4.75;2.50;;;;;;;;;;5004709;28;20079;-80
2023/06/01 04:14:39;;;;;;;8.02;2.20;;;;;;;;;;5038107;28;20510;-85
2023/06/01 04:17:06;;;;;;;3.45;2.30;;;;;;;;;;5037454;28;20128;-83
2023/06/01 04:19:32;;;;;;;5.10;3.08;;;;;;;;;;5037751;28;20063;-83
2023/06/01 04:21:57;;;;;;;7.55;3.15;;;;;;;;;;5037797;28;20021;-85
2023/06/01 04:24:22;;;;;;;7.88;3.75;;;;;;;;;;5037436;28;20078;-81
2023/06/01 04:26:49;;;;;;;8.80;4.07;;;;;;;;;;5020890;28;20539;-81
2023/06/01 04:29:15;;;;;;;13.48;4.38;;;;;;;;;;5021461;28;20102;-81
2023/06/01 04:31:40;;;;;;;11.32;4.07;;;;;;;;;;5037612;28;20033;-83
2023/06/01 04:34:06;;;;;;;10.38;4.25;;;;;;;;;;5055346;28;20082;-83
2023/06/01 04:36:38;;;;;;;10.57;4.65;;;;;;;;;;5020196;28;20125;-82
2023/06/01 04:39:07;;;;;;;12.52;5.03;;;;;;;;;;5021089;28;20025;-81
2023/06/01 04:41:34;;;;;;;14.93;5.15;;;;;;;;;;5020645;28;20021;-81
2023/06/01 04:44:00;;;;;;;11.27;4.93;;;;;;;;;;5020794;28;20060;-82
2023/06/01 04:46:26;;;;;;;12.95;5.10;;;;;;;;;;5054857;28;20387;-81
2023/06/01 04:48:52;;;;;;;12.25;4.78;;;;;;;;;;5037157;28;20025;-82
2023/06/01 04:51:21;;;;;;;14.93;4.78;;;;;;;;;;5020326;28;20163;-82
2023/06/01 04:53:51;;;;;;;20.05;5.93;;;;;;;;;;5055130;28;20039;-82
2023/06/01 04:56:25;;;;;;;23.63;7.10;;;;;;;;;;5020848;28;20400;-82
2023/06/01 04:58:51;;;;;;;24.83;7.05;;;;;;;;;;5037372;28;20017;-82
2023/06/01 05:01:17;;;;;;;25.30;7.75;;;;;;;;;;5037416;28;20031;-81
2023/06/01 05:03:47;;;;;;;25.20;7.57;;;;;;;;;;5055152;28;20052;-82
2023/06/01 05:06:13;;;;;;;23.48;7.10;;;;;;;;;;5036759;28;20029;-82
2023/06/01 05:08:41;;;;;;;21.83;6.82;;;;;;;;;;5020387;28;20353;-84
2023/06/01 05:11:08;;;;;;;18.80;6.30;;;;;;;;;;5036754;28;20033;-84
2023/06/01 05:13:38;;;;;;;17.27;5.75;;;;;;;;;;5036621;28;20063;-82
2023/06/01 05:16:04;;;;;;;20.33;6.70;;;;;;;;;;5036435;28;20033;-82
2023/06/01 05:18:30;;;;;;;22.30;6.22;;;;;;;;;;5020823;28;20088;-82
2023/06/01 05:20:56;;;;;;;18.00;5.32;;;;;;;;;;5037526;28;20020;-82
2023/06/01 05:23:22;;;;;;;16.50;5.78;;;;;;;;;;5036904;28;20024;-82
2023/06/01 05:25:48;;;;;;;11.88;4.43;;;;;;;;;;5037014;28;20472;-82
2023/06/01 05:28:14;;;;;;;12.70;4.82;;;;;;;;;;5036092;28;20039;-82
2023/06/01 05:30:40;;;;;;;13.32;4.90;;;;;;;;;;5003706;28;20040;-81
2023/06/01 05:33:05;;;;;;;12.27;4.18;;;;;;;;;;5054859;28;20029;-82
2023/06/01 05:35:30;;;;;;;11.38;3.65;;;;;;;;;;5053874;28;20029;-82
2023/06/01 05:37:56;;;;;;;7.95;3.90;;;;;;;;;;5020331;28;20029;-82
2023/06/01 05:40:21;;;;;;;8.63;3.85;;;;;;;;;;5019596;28;20037;-81
2023/06/01 05:42:47;;;;;;;11.00;3.55;;;;;;;;;;5001529;28;20106;-81
2023/06/01 05:45:12;;;;;;;10.80;3.30;;;;;;;;;;5036382;28;20110;-81
2023/06/01 05:47:37;;;;;;;9.98;3.67;;;;;;;;;;5036540;28;20039;-82
2023/06/01 05:50:04;;;;;;;4.80;2.90;;;;;;;;;;5020118;28;20069;-83
2023/06/01 05:52:30;;;;;;;7.10;3.80;;;;;;;;;;5019669;28;20480;-83
2023/06/01 05:54:55;;;;;;;6.40;3.60;;;;;;;;;;5019766;28;20028;-82
2023/06/01 05:57:21;;;;;;;5.22;2.97;;;;;;;;;;5035878;28;20114;-82
2023/06/01 05:59:46;;;;;;;8.23;3.00;;;;;;;;;;5019819;28;20067;-82
2023/06/01 06:02:13;;;;;;;5.28;3.10;;;;;;;;;;5054656;28;20029;-82
2023/06/01 06:04:39;;;;;;;4.65;2.90;;;;;;;;;;5037508;28;20067;-82
2023/06/01 06:07:05;;;;;;;6.85;3.08;;;;;;;;;;5055749;28;20040;-82
2023/06/01 06:09:30;;;;;;;5.68;2.80;;;;;;;;;;5038384;28;20037;-82
2023/06/01 06:11:56;;;;;;;5.82;2.60;;;;;;;;;;5055448;28;20036;-82
2023/06/01 06:14:22;;;;;;;8.73;3.15;;;;;;;;;;5037347;28;20029;-82
2023/06/01 06:16:47;;;;;;;4.97;3.05;;;;;;;;;;5039137;28;20037;-83
2023/06/01 06:19:15;;;;;;;8.05;2.80;;;;;;;;;;5041808;28;20024;-81
2023/06/01 06:21:41;;;;;;;3.22;2.20;;;;;;;;;;5040306;28;20107;-80
2023/06/01 06:24:06;;;;;;;5.70;2.67;;;;;;;;;;5038559;28;20067;-81
2023/06/01 06:26:32;;;;;;;4.47;2.42;;;;;;;;;;5036883;28;20044;-81
2023/06/01 06:28:57;;;;;;;3.17;2.20;;;;;;;;;;5036978;28;20491;-81
2023/06/01 06:31:23;;;;;;;6.10;3.05;;;;;;;;;;5035820;28;20384;-81
2023/06/01 06:33:49;;;;;;;4.75;2.50;;;;;;;;;;5020100;28;20090;-82
2023/06/01 06:36:15;;;;;;;3.10;2.45;;;;;;;;;;5035910;28;20079;-82
2023/06/01 06:38:41;;;;;;;5.95;2.80;;;;;;;;;;5036634;28;20025;-82
2023/06/01 06:41:06;;;;;;;3.97;2.28;;;;;;;;;;5036486;28;20380;-81
2023/06/01 06:43:32;;;;;;;4.68;2.42;;;;;;;;;;5053821;28;20142;-82
2023/06/01 06:45:57;;;;;;;2.40;2.08;;;;;;;;;;5019649;28;20480;-82
2023/06/01 06:48:22;;;;;;;3.55;2.55;;;;;;;;;;5053866;28;20033;-82
2023/06/01 06:50:48;;;;;;;4.03;2.50;;;;;;;;;;5035715;28;20091;-82
2023/06/01 06:53:13;;;;;;;3.75;2.60;;;;;;;;;;5053603;28;20037;-82
2023/06/01 06:55:38;;;;;;;3.70;2.55;;;;;;;;;;5018990;28;20035;-80
2023/06/01 06:58:04;;;;;;;5.75;2.50;;;;;;;;;;5019045;28;20032;-82
2023/06/01 07:00:30;;;;;;;5.38;2.42;;;;;;;;;;5022930;28;20036;-81
2023/06/01 07:02:55;;;;;;;4.28;2.50;;;;;;;;;;5039500;28;20059;-82
2023/06/01 07:05:21;;;;;;;4.18;2.90;;;;;;;;;;5057500;28;20032;-81
2023/06/01 07:07:46;;;;;;;5.28;2.70;;;;;;;;;;5022426;28;20041;-82
2023/06/01 07:10:12;;;;;;;3.78;2.55;;;;;;;;;;5056897;28;20033;-81
2023/06/01 07:12:38;;;;;;;6.55;2.70;;;;;;;;;;5056529;28;20025;-82
2023/06/01 07:15:04;;;;;;;4.22;2.75;;;;;;;;;;5038884;28;20032;-82
2023/06/01 07:17:29;;;;;;;4.15;2.60;;;;;;;;;;5022384;28;20480;-82
2023/06/01 07:19:54;;;;;;;5.05;2.78;;;;;;;;;;5056718;28;20032;-82
2023/06/01 07:22:21;;;;;;;5.07;2.47;;;;;;;;;;5039830;28;20053;-81
2023/06/01 07:24:47;;;;;;;4.18;2.40;;;;;;;;;;5039702;28;20558;-81
2023/06/01 07:27:13;;;;;;;4.40;2.50;;;;;;;;;;5058682;28;20036;-82
2023/06/01 07:29:39;;;;;;;4.30;2.50;;;;;;;;;;5024496;28;20430;-81
2023/06/01 07:32:05;;;;;;;4.18;2.50;;;;;;;;;;5024122;28;20028;-82
2023/06/01 07:34:33;;;;;;;5.32;2.60;;;;;;;;;;5062111;28;20044;-82
2023/06/01 07:36:58;;;;;;;3.97;2.35;;;;;;;;;;5060656;28;20037;-82
2023/06/01 07:39:24;;;;;;;5.65;2.53;;;;;;;;;;5058783;28;20392;-81
2023/06/01 07:41:53;;;;;;;3.63;2.50;;;;;;;;;;5056280;28;20021;-81
2023/06/01 07:44:18;;;;;;;2.58;2.20;;;;;;;;;;5022494;28;20049;-80
2023/06/01 07:46:44;;;;;;;5.22;2.22;;;;;;;;;;5021851;28;20395;-82
2023/06/01 07:49:13;;;;;;;3.30;2.20;;;;;;;;;;5038258;28;20025;-82
2023/06/01 07:51:39;;;;;;;5.03;2.50;;;;;;;;;;5056227;28;20021;-82
2023/06/01 07:54:04;;;;;;;7.38;2.25;;;;;;;;;;5021589;28;20442;-83
2023/06/01 07:56:30;;;;;;;8.48;2.38;;;;;;;;;;5056282;28;20044;-82
2023/06/01 07:58:55;;;;;;;4.63;2.28;;;;;;;;;;5056462;28;20047;-83
2023/06/01 08:01:20;;;;;;;6.30;2.40;;;;;;;;;;5042542;28;20029;-82
2023/06/01 08:03:46;;;;;;;8.35;2.92;;;;;;;;;;5006715;28;20037;-83
2023/06/01 08:06:12;;;;;;;4.45;2.33;;;;;;;;;;5039204;28;20179;-83
2023/06/01 08:08:38;;;;;;;4.90;2.53;;;;;;;;;;5022082;28;20028;-83
2023/06/01 08:11:04;;;;;;;3.25;2.15;;;;;;;;;;5021606;28;20075;-83
2023/06/01 08:13:30;;;;;;;7.03;2.20;;;;;;;;;;5023225;28;20029;-82
2023/06/01 08:15:55;;;;;;;6.05;2.20;;;;;;;;;;5038221;28;20025;-83
2023/06/01 08:18:21;;;;;;;4.55;2.40;;;;;;;;;;5004768;28;20403;-83
2023/06/01 08:20:48;;;;;;;6.55;2.55;;;;;;;;;;5037860;28;20033;-83
2023/06/01 08:23:16;;;;;;;5.85;2.30;;;;;;;;;;5004678;28;20036;-84
2023/06/01 08:25:42;;;;;;;4.45;2.38;;;;;;;;;;5054892;28;20032;-84
2023/06/01 08:28:08;;;;;;;4.20;2.17;;;;;;;;;;5037339;28;20060;-84
2023/06/01 08:30:33;;;;;;;6.43;2.60;;;;;;;;;;5036946;28;20049;-83
2023/06/01 08:32:58;;;;;;;10.30;2.47;;;;;;;;;;5054902;28;20033;-83
2023/06/01 08:35:25;;;;;;;6.90;2.75;;;;;;;;;;5037216;28;20047;-83
2023/06/01 08:37:50;;;;;;;5.63;2.80;;;;;;;;;;5036961;28;20108;-83
2023/06/01 08:40:16;;;;;;;9.23;2.28;;;;;;;;;;5036746;28;20063;-84
2023/06/01 08:42:45;;;;;;;4.47;2.25;;;;;;;;;;5020202;28;20033;-84
2023/06/01 08:45:11;;;;;;;5.88;2.20;;;;;;;;;;5036592;28;20059;-83
2023/06/01 08:47:38;;;;;;;6.63;2.20;;;;;;;;;;5036658;28;20036;-84
2023/06/01 08:50:04;;;;;;;5.38;2.25;;;;;;;;;;5036752;28;20392;-83
2023/06/01 08:52:31;;;;;;;4.72;2.00;;;;;;;;;;5037634;28;20035;-84
2023/06/01 08:55:04;;;;;;;3.38;2.20;;;;;;;;;;5036451;28;20126;-84
2023/06/01 08:57:29;;;;;;;3.80;2.50;;;;;;;;;;5054727;28;20387;-85
2023/06/01 08:59:55;;;;;;;10.52;3.25;;;;;;;;;;5020264;28;20029;-82
2023/06/01 09:02:22;;;;;;;8.07;2.17;;;;;;;;;;5036520;28;20116;-81
2023/06/01 09:04:47;;;;;;;6.20;2.70;;;;;;;;;;5020028;28;20044;-81
2023/06/01 09:07:13;;;;;;;6.75;2.40;;;;;;;;;;5054272;28;20041;-81
2023/06/01 09:09:39;;;;;;;15.70;2.70;;;;;;;;;;5036893;28;20204;-82
2023/06/01 09:12:27;;;;;;;9.20;2.53;;;;;;;;;;5036525;28;20108;-83
2023/06/01 09:15:25;;;;;;;7.93;2.40;;;;;;;;;;5035606;28;20392;-82
2023/06/01 09:17:51;;;;;;;5.43;2.25;;;;;;;;;;5018390;28;20025;-83
2023/06/01 09:20:28;;;;;;;6.68;2.65;;;;;;;;;;5018949;28;20476;-83
2023/06/01 09:22:55;;;;;;;7.28;2.50;;;;;;;;;;4982289;28;20116;-83
2023/06/01 09:25:26;;;;;;;4.25;2.60;;;;;;;;;;5000376;28;20085;-82
2023/06/01 09:27:53;;;;;;;7.13;2.60;;;;;;;;;;4999469;28;20081;-82
2023/06/01 09:30:21;;;;;;;9.70;2.53;;;;;;;;;;4999382;28;20025;-82
2023/06/01 09:32:50;;;;;;;13.32;2.38;;;;;;;;;;4982993;28;20061;-81
2023/06/01 09:35:28;;;;;;;5.65;2.50;;;;;;;;;;4986198;28;20036;-82
2023/06/01 09:37:56;;;;;;;7.82;3.10;;;;;;;;;;5000745;28;20025;-82
2023/06/01 09:40:22;;;;;;;7.68;2.58;;;;;;;;;;5015877;28;20084;-82
2023/06/01 09:42:50;;;;;;;4.18;2.38;;;;;;;;;;5015155;28;20033;-83
2023/06/01 09:45:20;;;;;;;7.43;2.17;;;;;;;;;;5033106;28;20081;-82
2023/06/01 09:47:50;;;;;;;4.32;2.30;;;;;;;;;;5015330;28;20025;-82
2023/06/01 09:50:37;;;;;;;5.60;2.35;;;;;;;;;;5015504;28;20057;-82
2023/06/01 09:53:03;;;;;;;6.25;2.30;;;;;;;;;;5015201;28;20476;-82
2023/06/01 09:55:29;;;;;;;6.00;2.40;;;;;;;;;;5033294;28;20133;-82
2023/06/01 09:58:18;;;;;;;9.10;2.50;;;;;;;;;;5033798;28;20500;-81
2023/06/01 10:00:45;;;;;;;4.00;2.60;;;;;;;;;;4999155;28;20029;-81
2023/06/01 10:03:10;;;;;;;4.80;2.42;;;;;;;;;;4999607;28;20398;-82
2023/06/01 10:05:36;;;;;;;6.38;2.42;;;;;;;;;;4999474;28;20036;-82
2023/06/01 10:08:02;;;;;;;4.80;2.35;;;;;;;;;;5016047;28;20124;-82
2023/06/01 10:10:27;;;;;;;7.60;2.60;;;;;;;;;;5015591;28;20037;-84
2023/06/01 10:12:52;;;;;;;8.50;2.30;;;;;;;;;;5033353;28;20579;-83
2023/06/01 10:15:18;;;;;;;4.68;2.33;;;;;;;;;;5033305;28;20436;-82
2023/06/01 10:17:43;;;;;;;4.28;2.42;;;;;;;;;;5016099;28;20038;-82
2023/06/01 10:20:11;;;;;;;6.25;2.88;;;;;;;;;;4999195;28;20056;-82
2023/06/01 10:22:39;;;;;;;3.30;2.22;;;;;;;;;;5016014;28;20033;-82
2023/06/01 10:25:05;;;;;;;8.85;2.65;;;;;;;;;;5015823;28;20025;-82
2023/06/01 10:27:41;;;;;;;5.00;2.55;;;;;;;;;;5016119;28;20044;-82
2023/06/01 10:30:08;;;;;;;3.13;2.22;;;;;;;;;;5015355;28;20026;-82
2023/06/01 10:32:37;;;;;;;3.75;2.22;;;;;;;;;;5015253;28;20025;-83
2023/06/01 10:35:06;;;;;;;4.00;2.20;;;;;;;;;;5036626;28;20048;-82
2023/06/01 10:37:32;;;;;;;6.32;2.40;;;;;;;;;;5019987;28;20103;-82
2023/06/01 10:40:16;;;;;;;6.20;2.38;;;;;;;;;;5019002;28;20026;-82
2023/06/01 10:42:42;;;;;;;3.53;2.50;;;;;;;;;;5036962;28;20022;-81
2023/06/01 10:45:09;;;;;;;7.32;2.60;;;;;;;;;;5002662;28;20522;-82
2023/06/01 10:47:35;;;;;;;6.30;2.33;;;;;;;;;;5019011;28;20029;-82
2023/06/01 10:50:00;;;;;;;4.07;2.45;;;;;;;;;;5020841;28;20036;-81
2023/06/01 10:52:38;;;;;;;5.55;2.60;;;;;;;;;;5036864;28;20187;-81
2023/06/01 10:55:20;;;;;;;7.25;2.25;;;;;;;;;;5018281;28;20112;-82
2023/06/01 10:57:46;;;;;;;4.75;2.58;;;;;;;;;;5036320;28;20532;-81
2023/06/01 11:00:26;;;;;;;4.53;2.38;;;;;;;;;;5002159;28;20365;-82
2023/06/01 11:02:52;;;;;;;7.28;2.60;;;;;;;;;;5002833;28;20048;-82
2023/06/01 11:05:51;;;;;;;6.43;2.50;;;;;;;;;;5036521;28;20037;-82
2023/06/01 11:08:20;;;;;;;4.80;2.20;;;;;;;;;;5020109;28;20022;-82
2023/06/01 11:10:55;;;;;;;3.90;2.35;;;;;;;;;;5036290;28;20029;-79
2023/06/01 11:13:26;;;;;;;5.32;2.33;;;;;;;;;;5036262;28;20480;-80
2023/06/01 11:16:03;;;;;;;4.38;2.28;;;;;;;;;;5018477;28;20112;-80
2023/06/01 11:18:49;;;;;;;6.40;2.28;;;;;;;;;;5036115;28;20022;-79
2023/06/01 11:21:24;;;;;;;8.60;3.00;;;;;;;;;;5018424;28;20044;-81
2023/06/01 11:23:54;;;;;;;8.00;2.92;;;;;;;;;;5034617;28;20028;-82
2023/06/01 11:26:24;;;;;;;15.02;3.47;;;;;;;;;;5001852;28;20112;-82
2023/06/01 11:28:50;;;;;;;12.93;3.20;;;;;;;;;;5018660;28;20036;-82
2023/06/01 11:31:16;;;;;;;8.32;3.05;;;;;;;;;;5018013;28;20025;-81
2023/06/01 11:33:52;;;;;;;7.75;2.63;;;;;;;;;;4998434;28;20354;-82
2023/06/01 11:36:20;;;;;;;7.43;2.90;;;;;;;;;;5016968;28;20491;-82
2023/06/01 11:38:46;;;;;;;9.13;3.08;;;;;;;;;;5002773;28;20040;-82
2023/06/01 11:41:11;;;;;;;12.35;2.75;;;;;;;;;;5018927;28;20030;-83
2023/06/01 11:43:37;;;;;;;8.18;2.90;;;;;;;;;;5035953;28;20412;-82
2023/06/01 11:46:04;;;;;;;6.25;3.00;;;;;;;;;;5017861;28;20045;-82
2023/06/01 11:48:29;;;;;;;4.82;2.53;;;;;;;;;;5010845;28;20044;-82
2023/06/01 11:50:55;;;;;;;13.45;2.70;;;;;;;;;;5018237;28;20034;-83
2023/06/01 11:53:24;;;;;;;5.13;2.40;;;;;;;;;;5018323;28;20361;-84
2023/06/01 11:55:51;;;;;;;4.75;2.45;;;;;;;;;;5037446;28;20039;-83
2023/06/01 11:58:24;;;;;;;8.18;2.58;;;;;;;;;;5018327;28;20022;-82
2023/06/01 12:00:49;;;;;;;5.90;2.08;;;;;;;;;;5018451;28;20447;-83
2023/06/01 12:03:16;;;;;;;7.03;2.00;;;;;;;;;;5017914;28;20049;-83
2023/06/01 12:05:49;;;;;;;4.65;2.33;;;;;;;;;;5018062;28;20038;-83
2023/06/01 12:08:14;;;;;;;5.18;2.00;;;;;;;;;;5019174;28;20060;-83
2023/06/01 12:10:42;;;;;;;5.38;2.30;;;;;;;;;;5036042;28;20041;-82
2023/06/01 12:13:09;;;;;;;6.57;2.10;;;;;;;;;;5002026;28;20032;-82
2023/06/01 12:15:41;;;;;;;3.72;1.70;;;;;;;;;;5002756;28;20484;-82
2023/06/01 12:18:08;;;;;;;4.32;1.90;;;;;;;;;;5018511;28;20029;-82
2023/06/01 12:20:37;;;;;;;4.70;1.77;;;;;;;;;;5018281;28;20033;-82
2023/06/01 12:23:16;;;;;;;6.45;1.90;;;;;;;;;;5017747;28;20075;-82
2023/06/01 12:25:58;;;;;;;2.92;2.03;;;;;;;;;;5035597;28;20036;-82
2023/06/01 12:28:35;;;;;;;5.25;1.77;;;;;;;;;;5018527;28;20464;-83
2023/06/01 12:31:13;;;;;;;3.38;1.73;;;;;;;;;;5003082;28;20029;-82
2023/06/01 12:33:39;;;;;;;3.85;1.77;;;;;;;;;;4995683;28;20034;-81
2023/06/01 12:36:06;;;;;;;5.13;1.85;;;;;;;;;;4998164;28;20113;-80
2023/06/01 12:38:49;;;;;;;2.45;1.52;;;;;;;;;;4998140;28;20046;-80
2023/06/01 12:41:15;;;;;;;3.00;1.57;;;;;;;;;;4999169;28;20026;-79
2023/06/01 12:43:48;;;;;;;4.57;1.55;;;;;;;;;;5008369;28;20037;-80
2023/06/01 12:46:26;;;;;;;4.33;1.60;;;;;;;;;;4996256;28;20423;-82
2023/06/01 12:48:53;;;;;;;6.47;1.55;;;;;;;;;;5000603;28;20045;-82
2023/06/01 12:51:20;;;;;;;3.42;1.48;;;;;;;;;;5018120;28;20025;-81
2023/06/01 12:53:45;;;;;;;4.30;1.67;;;;;;;;;;5038978;28;20037;-83
2023/06/01 12:56:11;;;;;;;2.22;1.50;;;;;;;;;;5038693;28;20040;-82
2023/06/01 12:58:37;;;;;;;3.28;1.33;;;;;;;;;;5024355;28;20040;-83
2023/06/01 13:01:03;;;;;;;3.38;1.48;;;;;;;;;;5045056;28;20029;-83
2023/06/01 13:03:29;;;;;;;3.53;1.65;;;;;;;;;;5019880;28;20089;-81
2023/06/01 13:05:55;;;;;;;2.83;1.45;;;;;;;;;;4980824;28;20477;-82
2023/06/01 13:08:20;;;;;;;6.57;1.58;;;;;;;;;;5034790;28;20021;-80
2023/06/01 13:10:46;;;;;;;3.97;1.90;;;;;;;;;;5017980;28;20025;-81
2023/06/01 13:13:12;;;;;;;5.07;1.42;;;;;;;;;;5017562;28;20051;-81
2023/06/01 13:15:44;;;;;;;2.35;1.70;;;;;;;;;;5000531;28;20032;-80
2023/06/01 13:18:13;;;;;;;3.45;1.67;;;;;;;;;;5017056;28;20132;-82
2023/06/01 13:20:41;;;;;;;2.92;1.60;;;;;;;;;;5017058;28;20022;-81
2023/06/01 13:23:07;;;;;;;4.38;1.70;;;;;;;;;;5001179;28;20033;-81
2023/06/01 13:25:33;;;;;;;5.15;1.65;;;;;;;;;;5016123;28;20030;-83
2023/06/01 13:27:59;;;;;;;2.30;1.50;;;;;;;;;;5000297;28;20073;-81
2023/06/01 13:30:24;;;;;;;3.10;1.70;;;;;;;;;;5034102;28;20429;-81
2023/06/01 13:32:49;;;;;;;5.43;1.85;;;;;;;;;;5016186;28;20036;-81
2023/06/01 13:35:15;;;;;;;4.28;1.75;;;;;;;;;;5016552;28;20111;-81
2023/06/01 13:37:41;;;;;;;4.28;2.00;;;;;;;;;;5016499;28;20033;-81
2023/06/01 13:40:07;;;;;;;3.45;2.00;;;;;;;;;;5033998;28;20029;-81
2023/06/01 13:42:32;;;;;;;3.05;1.77;;;;;;;;;;5016428;28;20033;-82
2023/06/01 13:44:58;;;;;;;5.32;1.63;;;;;;;;;;5016275;28;20444;-82
2023/06/01 13:47:24;;;;;;;4.60;1.63;;;;;;;;;;5016742;28;20432;-83
2023/06/01 13:49:50;;;;;;;4.38;1.60;;;;;;;;;;5034749;28;20041;-82
2023/06/01 13:52:16;;;;;;;2.65;1.50;;;;;;;;;;5016479;28;20092;-82
2023/06/01 13:54:41;;;;;;;8.38;2.20;;;;;;;;;;5000190;28;20060;-82
2023/06/01 13:57:07;;;;;;;1.92;1.60;;;;;;;;;;5016820;28;20439;-81
2023/06/01 13:59:35;;;;;;;5.05;1.77;;;;;;;;;;5037301;28;20036;-80
2023/06/01 14:02:02;;;;;;;2.65;1.40;;;;;;;;;;5001310;28;20071;-83
2023/06/01 14:04:28;;;;;;;5.03;1.60;;;;;;;;;;4987049;28;20030;-82
2023/06/01 14:06:55;;;;;;;3.65;1.92;;;;;;;;;;5003340;28;20400;-82
2023/06/01 14:09:21;;;;;;;2.42;1.48;;;;;;;;;;5035099;28;20029;-83
2023/06/01 14:11:46;;;;;;;10.93;1.73;;;;;;;;;;5000185;28;20029;-82
2023/06/01 14:14:12;;;;;;;3.60;1.60;;;;;;;;;;5016606;28;20034;-83
2023/06/01 14:16:37;;;;;;;4.18;1.50;;;;;;;;;;5017462;28;20041;-83
2023/06/01 14:19:03;;;;;;;3.95;1.50;;;;;;;;;;5001211;28;20034;-83
2023/06/01 14:21:30;;;;;;;8.07;1.40;;;;;;;;;;5019015;28;20017;-81
2023/06/01 14:23:56;;;;;;;2.78;1.42;;;;;;;;;;5018348;28;20029;-83
2023/06/01 14:26:21;;;;;;;2.30;1.20;;;;;;;;;;5017224;28;20041;-83
2023/06/01 14:28:47;;;;;;;7.30;1.30;;;;;;;;;;4983510;28;20109;-82
2023/06/01 14:31:12;;;;;;;3.38;1.80;;;;;;;;;;5016396;28;20399;-82
2023/06/01 14:33:38;;;;;;;1.55;1.20;;;;;;;;;;5034117;28;20048;-83
2023/06/01 14:36:04;;;;;;;3.55;1.30;;;;;;;;;;4983147;28;20026;-83
2023/06/01 14:38:30;;;;;;;1.33;1.23;;;;;;;;;;5017966;28;20048;-83
2023/06/01 14:40:55;;;;;;;1.30;1.17;;;;;;;;;;5015944;28;20112;-83
2023/06/01 14:43:21;;;;;;;3.35;1.67;;;;;;;;;;5016272;28;20109;-81